createdAt,value
2019-01-31T00:03:36.024Z,77.00
2019-01-31T00:07:52.764Z,77.40
2019-01-31T00:12:12.945Z,78.00
2019-01-31T00:16:43.783Z,78.20
2019-01-31T00:20:54.699Z,78.80
2019-01-31T00:25:27.500Z,79.40
2019-01-31T00:29:44.007Z,80.00
2019-01-31T00:34:01.859Z,81.00
2019-01-31T00:38:26.076Z,81.20
2019-01-31T00:42:43.023Z,81.40
2019-01-31T00:47:03.179Z,81.20
2019-01-31T00:51:13.850Z,81.10
2019-01-31T00:55:27.699Z,80.70
2019-01-31T00:59:55.384Z,81.00
2019-01-31T01:04:33.753Z,80.40
2019-01-31T01:08:53.930Z,80.40
2019-01-31T01:13:19.775Z,80.60
2019-01-31T01:17:42.816Z,80.30
2019-01-31T01:22:08.377Z,79.90
2019-01-31T01:26:20.290Z,79.30
2019-01-31T01:30:37.138Z,79.30
2019-01-31T01:35:01.323Z,79.20
2019-01-31T01:39:18.881Z,79.70
2019-01-31T01:43:43.696Z,79.10
2019-01-31T01:47:51.815Z,79.20
2019-01-31T01:52:03.028Z,79.40
2019-01-31T01:56:19.719Z,79.80
2019-01-31T02:00:42.632Z,80.20
2019-01-31T02:05:24.957Z,80.10
2019-01-31T02:09:35.888Z,79.60
2019-01-31T02:14:05.060Z,78.80
2019-01-31T02:18:18.969Z,78.10
2019-01-31T02:22:45.308Z,78.20
2019-01-31T02:27:08.459Z,77.70
2019-01-31T02:31:31.495Z,78.30
2019-01-31T02:35:39.644Z,77.30
2019-01-31T02:40:02.970Z,76.90
2019-01-31T02:44:16.776Z,76.20
2019-01-31T02:48:45.483Z,76.10
2019-01-31T02:53:14.677Z,76.00
2019-01-31T02:57:43.796Z,75.30
2019-01-31T03:01:54.469Z,74.60
2019-01-31T03:06:18.916Z,74.30
2019-01-31T03:10:32.723Z,74.30
2019-01-31T03:14:39.062Z,74.20
2019-01-31T03:18:55.964Z,74.20
2019-01-31T03:23:04.054Z,74.40
2019-01-31T03:27:14.994Z,73.90
2019-01-31T03:31:41.455Z,74.10
2019-01-31T03:36:01.561Z,73.80
2019-01-31T03:40:15.326Z,73.60
2019-01-31T03:44:53.432Z,73.80
2019-01-31T03:49:10.272Z,73.80
2019-01-31T03:53:24.243Z,73.80
2019-01-31T03:57:50.554Z,73.90
2019-01-31T04:02:07.173Z,74.70
2019-01-31T04:06:15.288Z,75.20
2019-01-31T04:10:20.102Z,75.10
2019-01-31T04:14:27.333Z,75.20
2019-01-31T04:18:31.389Z,75.60
2019-01-31T04:22:36.203Z,75.90
2019-01-31T04:26:41.020Z,75.60
2019-01-31T04:30:45.859Z,76.30
2019-01-31T04:34:50.680Z,76.00
2019-01-31T04:38:55.502Z,75.90
2019-01-31T04:43:02.469Z,75.60
2019-01-31T04:47:07.381Z,75.50
2019-01-31T04:51:12.166Z,75.40
2019-01-31T04:55:16.985Z,75.10
2019-01-31T04:59:21.812Z,74.70
2019-01-31T05:03:26.637Z,74.70
2019-01-31T05:07:31.531Z,74.90
2019-01-31T05:11:36.374Z,74.80
2019-01-31T05:15:42.134Z,74.50
2019-01-31T05:19:47.016Z,73.80
2019-01-31T05:23:52.121Z,73.40
2019-01-31T05:27:56.898Z,73.60
2019-01-31T05:32:01.741Z,73.60
2019-01-31T05:36:06.542Z,73.20
2019-01-31T05:40:13.683Z,73.20
2019-01-31T05:44:18.498Z,73.80
2019-01-31T05:48:23.318Z,73.50
2019-01-31T05:52:28.138Z,73.80
2019-01-31T05:56:32.935Z,74.60
2019-01-31T06:00:38.022Z,74.00
2019-01-31T06:04:42.829Z,73.80
2019-01-31T06:08:47.648Z,73.80
2019-01-31T06:12:52.463Z,74.50
2019-01-31T06:16:57.407Z,75.00
2019-01-31T06:21:02.211Z,74.90
2019-01-31T06:25:07.121Z,74.90
2019-01-31T06:29:12.011Z,75.30
2019-01-31T06:33:16.939Z,75.10
2019-01-31T06:37:21.773Z,75.30
2019-01-31T06:41:26.561Z,75.20
2019-01-31T06:45:31.379Z,75.30
2019-01-31T06:49:37.343Z,75.40
2019-01-31T06:53:42.163Z,76.20
2019-01-31T06:57:47.080Z,76.80
2019-01-31T07:01:52.031Z,77.60
2019-01-31T07:05:56.858Z,78.50
2019-01-31T07:10:01.679Z,79.30
2019-01-31T07:14:06.508Z,79.60
2019-01-31T07:18:11.335Z,79.70
2019-01-31T07:22:16.151Z,80.00
2019-01-31T07:26:21.218Z,80.00
2019-01-31T07:30:26.851Z,79.80
2019-01-31T07:34:31.813Z,70.10
2019-01-31T07:38:36.636Z,59.10
2019-01-31T07:42:41.437Z,52.50
2019-01-31T07:46:46.299Z,48.80
2019-01-31T07:50:51.387Z,46.00
2019-01-31T07:54:56.475Z,41.20
2019-01-31T07:59:01.615Z,39.20
2019-01-31T08:03:06.836Z,38.30
2019-01-31T08:07:11.927Z,37.20
2019-01-31T08:11:17.065Z,37.70
2019-01-31T08:15:22.204Z,37.30
2019-01-31T08:19:27.315Z,35.00
2019-01-31T08:23:32.424Z,34.10
2019-01-31T08:27:37.505Z,34.00
2019-01-31T08:31:42.600Z,30.40
2019-01-31T08:35:47.688Z,32.60
2019-01-31T08:39:52.780Z,32.30
2019-01-31T08:43:57.883Z,33.50
2019-01-31T08:48:02.952Z,31.90
2019-01-31T08:52:08.047Z,29.50
2019-01-31T08:56:13.153Z,28.80
2019-01-31T09:00:23.259Z,29.40
2019-01-31T09:04:28.471Z,29.50
2019-01-31T09:08:33.643Z,29.20
2019-01-31T09:12:38.735Z,29.60
2019-01-31T09:16:43.840Z,31.10
2019-01-31T09:20:52.242Z,29.80
2019-01-31T09:25:18.352Z,29.90
2019-01-31T09:29:29.644Z,31.20
2019-01-31T09:33:41.175Z,30.30
2019-01-31T09:38:06.223Z,30.10
2019-01-31T09:42:35.841Z,31.10
2019-01-31T09:46:50.780Z,29.80
2019-01-31T09:51:07.832Z,29.40
2019-01-31T09:55:42.441Z,27.60
2019-01-31T09:59:53.659Z,27.00
2019-01-31T10:04:17.216Z,27.70
2019-01-31T10:08:36.872Z,26.10
2019-01-31T10:13:18.034Z,24.60
2019-01-31T10:17:32.057Z,25.80
2019-01-31T10:21:58.036Z,26.20
2019-01-31T10:26:15.336Z,26.20
2019-01-31T10:30:54.229Z,24.10
2019-01-31T10:35:23.683Z,24.30
2019-01-31T10:39:51.745Z,24.10
2019-01-31T10:44:02.640Z,24.20
2019-01-31T10:48:29.197Z,23.90
2019-01-31T10:52:37.568Z,24.00
2019-01-31T10:56:48.615Z,23.70
2019-01-31T11:00:57.227Z,23.90
2019-01-31T11:05:14.294Z,23.80
2019-01-31T11:09:28.275Z,23.10
2019-01-31T11:13:36.636Z,24.40
2019-01-31T11:18:02.875Z,23.80
2019-01-31T11:22:30.007Z,23.70
2019-01-31T11:26:38.372Z,23.50
2019-01-31T11:30:55.151Z,22.70
2019-01-31T11:35:30.487Z,23.10
2019-01-31T11:39:44.839Z,23.10
2019-01-31T11:44:04.962Z,24.30
2019-01-31T11:48:16.271Z,26.20
2019-01-31T11:52:44.020Z,27.60
2019-01-31T11:57:10.073Z,29.40
2019-01-31T12:01:15.180Z,29.90
2019-01-31T12:05:20.300Z,30.30
2019-01-31T12:09:25.390Z,31.80
2019-01-31T12:13:31.471Z,34.40
2019-01-31T12:17:36.658Z,33.90
2019-01-31T12:21:44.388Z,32.40
2019-01-31T12:25:49.507Z,35.80
2019-01-31T12:29:54.633Z,38.80
2019-01-31T12:33:59.718Z,40.10
2019-01-31T12:38:05.057Z,41.10
2019-01-31T12:42:10.152Z,41.80
2019-01-31T12:46:15.748Z,42.90
2019-01-31T12:50:23.035Z,44.10
2019-01-31T12:54:27.860Z,44.20
2019-01-31T12:58:33.902Z,44.40
2019-01-31T13:02:38.897Z,44.50
2019-01-31T13:06:43.723Z,44.10
2019-01-31T13:10:48.541Z,44.50
2019-01-31T13:14:53.336Z,44.20
2019-01-31T13:18:59.249Z,43.90
2019-01-31T13:23:04.080Z,43.60
2019-01-31T13:27:08.970Z,44.30
2019-01-31T13:31:13.790Z,43.50
2019-01-31T13:35:18.656Z,44.00
2019-01-31T13:39:23.665Z,43.70
2019-01-31T13:43:28.472Z,44.20
2019-01-31T13:47:33.296Z,44.80
2019-01-31T13:51:38.232Z,45.20
2019-01-31T13:55:43.051Z,45.80
2019-01-31T13:59:47.849Z,46.50
2019-01-31T14:03:52.674Z,48.00
2019-01-31T14:07:57.661Z,49.50
2019-01-31T14:12:02.520Z,51.00
2019-01-31T14:16:07.356Z,51.50
2019-01-31T14:20:15.600Z,52.30
2019-01-31T14:24:20.465Z,52.70
2019-01-31T14:28:25.315Z,53.90
2019-01-31T14:32:30.527Z,54.80
2019-01-31T14:36:35.563Z,55.60
2019-01-31T14:40:40.388Z,56.40
2019-01-31T17:51:31.692Z,82.40
2019-01-31T17:55:37.772Z,83.80
2019-01-31T17:59:43.431Z,84.30
2019-01-31T18:03:48.418Z,84.60
2019-01-31T18:07:53.217Z,85.30
2019-01-31T18:11:58.192Z,85.60
2019-01-31T18:16:04.218Z,85.80
2019-01-31T18:20:15.128Z,87.00
2019-01-31T18:24:20.616Z,86.90
2019-01-31T18:28:25.748Z,87.90
2019-01-31T18:32:31.564Z,89.00
2019-01-31T18:36:36.550Z,89.50
2019-01-31T18:40:42.097Z,89.90
2019-01-31T18:44:47.868Z,90.10
2019-01-31T18:48:53.242Z,90.20
2019-01-31T18:52:58.837Z,90.10
2019-01-31T18:57:04.923Z,89.60
2019-01-31T19:01:10.839Z,89.20
2019-01-31T19:05:16.460Z,89.40
2019-01-31T19:09:22.217Z,90.10
2019-01-31T19:13:28.040Z,90.50
2019-01-31T19:17:33.927Z,90.80
2019-01-31T19:21:39.915Z,91.20
2019-01-31T19:25:47.322Z,91.50
2019-01-31T19:29:53.292Z,91.60
2019-01-31T19:33:59.386Z,92.00
2019-01-31T19:38:05.711Z,92.30
2019-01-31T19:42:11.550Z,92.50
2019-01-31T19:46:19.333Z,92.30
2019-01-31T19:50:25.757Z,92.30
2019-01-31T19:54:33.422Z,92.30
2019-01-31T19:58:39.505Z,92.20
2019-01-31T20:02:45.536Z,92.30
2019-01-31T20:06:51.974Z,92.40
2019-01-31T20:10:57.768Z,92.40
2019-01-31T20:15:03.459Z,92.30
2019-01-31T20:19:09.533Z,92.20
2019-01-31T20:23:15.829Z,91.90
2019-01-31T20:27:22.809Z,91.70
2019-01-31T20:31:28.992Z,91.40
2019-01-31T20:35:34.892Z,91.10
2019-01-31T20:39:40.948Z,90.50
2019-01-31T20:43:47.156Z,90.60
2019-01-31T20:47:53.381Z,90.30
2019-01-31T20:51:59.348Z,90.00
2019-01-31T20:56:05.415Z,89.80
2019-01-31T21:00:24.335Z,90.00
2019-01-31T21:04:30.737Z,90.30
2019-01-31T21:08:37.108Z,90.50
2019-01-31T21:12:43.165Z,90.70
2019-01-31T21:16:51.685Z,91.30
2019-01-31T21:20:56.775Z,91.50
2019-01-31T21:25:02.531Z,91.80
2019-01-31T21:29:08.423Z,91.80
2019-01-31T21:33:14.091Z,91.90
2019-01-31T21:37:19.432Z,92.30
2019-01-31T21:41:24.414Z,92.10
2019-01-31T21:45:29.402Z,92.30
2019-01-31T21:49:34.360Z,92.40
2019-01-31T21:53:39.185Z,92.70
2019-01-31T21:57:44.016Z,93.00
2019-01-31T22:01:48.886Z,93.20
2019-01-31T22:05:53.800Z,93.40
2019-01-31T22:09:58.623Z,93.60
2019-01-31T22:14:03.455Z,93.30
2019-01-31T22:18:09.474Z,92.90
2019-01-31T22:22:14.280Z,92.80
2019-01-31T22:26:19.241Z,92.70
2019-01-31T22:30:26.956Z,92.90
2019-01-31T22:34:31.973Z,93.10
2019-01-31T22:38:36.812Z,93.40
2019-01-31T22:42:41.653Z,93.90
2019-01-31T22:46:46.486Z,94.00
2019-01-31T22:50:51.476Z,93.90
2019-01-31T22:54:56.317Z,93.90
2019-01-31T22:59:01.212Z,94.20
2019-01-31T23:03:07.115Z,94.00
2019-01-31T23:07:11.983Z,93.90
2019-01-31T23:11:16.811Z,93.90
2019-01-31T23:15:22.095Z,93.40
2019-01-31T23:19:26.956Z,92.70
2019-01-31T23:23:31.792Z,92.20
2019-01-31T23:27:36.624Z,91.50
2019-01-31T23:31:41.576Z,91.40
2019-01-31T23:35:46.388Z,91.20
2019-01-31T23:39:51.232Z,91.40
2019-01-31T23:43:56.065Z,91.50
2019-01-31T23:48:00.897Z,91.50
2019-01-31T23:52:05.760Z,91.40
2019-01-31T23:56:10.575Z,91.50
